sensor_id;sensor_type;location;lat;lon;timestamp;pressure;altitude;pressure_sealevel;temperature;humidity
56176;BME280;63065;51.082;17.016;2023-04-22T00:01:36;100240.65;;;13.52;35.65
56176;BME280;63065;51.082;17.016;2023-04-22T00:04:02;100239.09;;;13.44;35.58
56176;BME280;63065;51.082;17.016;2023-04-22T00:06:27;100239.12;;;13.39;35.33
56176;BME280;63065;51.082;17.016;2023-04-22T00:08:53;100239.66;;;13.39;35.41
56176;BME280;63065;51.082;17.016;2023-04-22T00:11:18;100239.99;;;13.87;35.53
56176;BME280;63065;51.082;17.016;2023-04-22T00:13:44;100237.02;;;13.27;35.83
56176;BME280;63065;51.082;17.016;2023-04-22T00:16:10;100240.40;;;13.28;36.81
56176;BME280;63065;51.082;17.016;2023-04-22T00:18:35;100241.53;;;13.62;36.06
56176;BME280;63065;51.082;17.016;2023-04-22T00:21:01;100240.36;;;13.41;36.01
56176;BME280;63065;51.082;17.016;2023-04-22T00:23:26;100234.99;;;13.27;35.27
56176;BME280;63065;51.082;17.016;2023-04-22T00:25:52;100237.24;;;13.32;36.03
56176;BME280;63065;51.082;17.016;2023-04-22T00:28:17;100237.00;;;13.47;36.15
56176;BME280;63065;51.082;17.016;2023-04-22T00:30:43;100237.33;;;13.13;36.39
56176;BME280;63065;51.082;17.016;2023-04-22T00:33:08;100236.19;;;13.26;36.03
56176;BME280;63065;51.082;17.016;2023-04-22T00:35:33;100234.71;;;13.32;35.88
56176;BME280;63065;51.082;17.016;2023-04-22T00:37:58;100234.13;;;13.25;35.89
56176;BME280;63065;51.082;17.016;2023-04-22T00:40:24;100233.15;;;12.80;36.13
56176;BME280;63065;51.082;17.016;2023-04-22T00:42:50;100237.56;;;12.96;36.21
56176;BME280;63065;51.082;17.016;2023-04-22T00:45:15;100237.94;;;12.73;36.73
56176;BME280;63065;51.082;17.016;2023-04-22T00:47:40;100237.57;;;12.95;36.40
56176;BME280;63065;51.082;17.016;2023-04-22T00:50:07;100237.35;;;12.86;36.94
56176;BME280;63065;51.082;17.016;2023-04-22T00:52:32;100236.86;;;12.76;37.08
56176;BME280;63065;51.082;17.016;2023-04-22T00:54:58;100236.95;;;12.73;36.56
56176;BME280;63065;51.082;17.016;2023-04-22T00:57:23;100237.31;;;12.89;36.60
56176;BME280;63065;51.082;17.016;2023-04-22T00:59:49;100240.05;;;12.62;36.76
56176;BME280;63065;51.082;17.016;2023-04-22T01:02:14;100245.02;;;12.59;37.09
56176;BME280;63065;51.082;17.016;2023-04-22T01:04:39;100246.22;;;12.70;37.69
56176;BME280;63065;51.082;17.016;2023-04-22T01:07:04;100244.98;;;12.76;36.86
56176;BME280;63065;51.082;17.016;2023-04-22T01:09:30;100245.66;;;12.92;36.86
56176;BME280;63065;51.082;17.016;2023-04-22T01:11:55;100244.71;;;12.74;37.32
56176;BME280;63065;51.082;17.016;2023-04-22T01:14:21;100247.00;;;12.48;37.49
56176;BME280;63065;51.082;17.016;2023-04-22T01:16:46;100245.59;;;12.45;37.21
56176;BME280;63065;51.082;17.016;2023-04-22T01:19:12;100245.72;;;12.31;37.80
56176;BME280;63065;51.082;17.016;2023-04-22T01:21:38;100248.70;;;12.66;38.00
56176;BME280;63065;51.082;17.016;2023-04-22T01:24:03;100248.75;;;12.51;37.33
56176;BME280;63065;51.082;17.016;2023-04-22T01:26:28;100250.61;;;12.48;37.79
56176;BME280;63065;51.082;17.016;2023-04-22T01:28:53;100248.09;;;12.31;37.98
56176;BME280;63065;51.082;17.016;2023-04-22T01:31:19;100245.61;;;12.43;37.76
56176;BME280;63065;51.082;17.016;2023-04-22T01:33:44;100246.04;;;12.67;38.17
56176;BME280;63065;51.082;17.016;2023-04-22T01:36:10;100239.48;;;12.44;37.72
56176;BME280;63065;51.082;17.016;2023-04-22T01:38:34;100242.74;;;12.34;38.20
56176;BME280;63065;51.082;17.016;2023-04-22T01:41:00;100243.48;;;12.15;37.78
56176;BME280;63065;51.082;17.016;2023-04-22T01:43:25;100242.89;;;12.39;37.44
56176;BME280;63065;51.082;17.016;2023-04-22T01:45:50;100237.21;;;11.98;38.12
56176;BME280;63065;51.082;17.016;2023-04-22T01:48:15;100239.51;;;12.03;38.58
56176;BME280;63065;51.082;17.016;2023-04-22T01:50:40;100239.78;;;12.27;38.52
56176;BME280;63065;51.082;17.016;2023-04-22T01:53:06;100240.53;;;12.12;38.09
56176;BME280;63065;51.082;17.016;2023-04-22T01:55:33;100234.79;;;12.17;38.12
56176;BME280;63065;51.082;17.016;2023-04-22T01:57:57;100234.74;;;12.10;38.01
56176;BME280;63065;51.082;17.016;2023-04-22T02:00:22;100230.68;;;12.05;38.19
56176;BME280;63065;51.082;17.016;2023-04-22T02:02:48;100229.81;;;12.14;38.43
56176;BME280;63065;51.082;17.016;2023-04-22T02:05:13;100226.81;;;12.15;38.32
56176;BME280;63065;51.082;17.016;2023-04-22T02:07:39;100226.31;;;12.20;38.62
56176;BME280;63065;51.082;17.016;2023-04-22T02:10:06;100223.48;;;11.99;38.59
56176;BME280;63065;51.082;17.016;2023-04-22T02:12:30;100221.99;;;12.21;38.68
56176;BME280;63065;51.082;17.016;2023-04-22T02:14:56;100219.80;;;12.15;38.86
56176;BME280;63065;51.082;17.016;2023-04-22T02:17:21;100221.04;;;12.18;39.13
56176;BME280;63065;51.082;17.016;2023-04-22T02:19:47;100220.21;;;11.84;39.49
56176;BME280;63065;51.082;17.016;2023-04-22T02:22:12;100213.01;;;11.91;38.78
56176;BME280;63065;51.082;17.016;2023-04-22T02:24:38;100215.27;;;11.97;38.91
56176;BME280;63065;51.082;17.016;2023-04-22T02:27:04;100214.88;;;12.14;39.13
56176;BME280;63065;51.082;17.016;2023-04-22T02:29:29;100212.28;;;11.81;38.88
56176;BME280;63065;51.082;17.016;2023-04-22T02:31:55;100211.49;;;11.76;38.99
56176;BME280;63065;51.082;17.016;2023-04-22T02:34:20;100213.05;;;11.95;39.31
56176;BME280;63065;51.082;17.016;2023-04-22T02:36:46;100213.58;;;11.97;39.67
56176;BME280;63065;51.082;17.016;2023-04-22T02:39:11;100209.76;;;11.89;39.22
56176;BME280;63065;51.082;17.016;2023-04-22T02:41:37;100211.49;;;11.80;39.74
56176;BME280;63065;51.082;17.016;2023-04-22T02:44:02;100212.95;;;11.66;39.92
56176;BME280;63065;51.082;17.016;2023-04-22T02:46:28;100211.40;;;12.03;39.36
56176;BME280;63065;51.082;17.016;2023-04-22T02:48:53;100206.83;;;11.81;39.45
56176;BME280;63065;51.082;17.016;2023-04-22T02:51:19;100205.90;;;11.94;39.34
56176;BME280;63065;51.082;17.016;2023-04-22T02:53:44;100204.65;;;11.73;39.79
56176;BME280;63065;51.082;17.016;2023-04-22T02:56:10;100202.95;;;12.01;39.15
56176;BME280;63065;51.082;17.016;2023-04-22T02:58:35;100199.89;;;11.92;39.39
56176;BME280;63065;51.082;17.016;2023-04-22T03:01:00;100202.73;;;11.84;39.37
56176;BME280;63065;51.082;17.016;2023-04-22T03:03:26;100204.24;;;11.84;39.26
56176;BME280;63065;51.082;17.016;2023-04-22T03:05:51;100204.43;;;11.62;39.23
56176;BME280;63065;51.082;17.016;2023-04-22T03:08:17;100204.31;;;11.79;39.20
56176;BME280;63065;51.082;17.016;2023-04-22T03:10:42;100205.56;;;11.80;39.31
56176;BME280;63065;51.082;17.016;2023-04-22T03:13:07;100201.85;;;11.73;39.35
56176;BME280;63065;51.082;17.016;2023-04-22T03:15:33;100200.84;;;11.64;39.61
56176;BME280;63065;51.082;17.016;2023-04-22T03:17:58;100202.28;;;11.45;39.91
56176;BME280;63065;51.082;17.016;2023-04-22T03:20:24;100198.83;;;11.66;39.54
56176;BME280;63065;51.082;17.016;2023-04-22T03:22:50;100198.80;;;11.46;40.06
56176;BME280;63065;51.082;17.016;2023-04-22T03:25:15;100197.58;;;11.74;39.82
56176;BME280;63065;51.082;17.016;2023-04-22T03:27:41;100193.45;;;11.43;39.71
56176;BME280;63065;51.082;17.016;2023-04-22T03:30:07;100196.07;;;11.34;40.00
56176;BME280;63065;51.082;17.016;2023-04-22T03:32:32;100194.62;;;11.38;39.91
56176;BME280;63065;51.082;17.016;2023-04-22T03:34:57;100193.96;;;11.36;40.30
56176;BME280;63065;51.082;17.016;2023-04-22T03:37:22;100194.30;;;11.67;40.00
56176;BME280;63065;51.082;17.016;2023-04-22T03:39:47;100195.88;;;11.43;40.12
56176;BME280;63065;51.082;17.016;2023-04-22T03:42:13;100196.05;;;11.40;39.98
56176;BME280;63065;51.082;17.016;2023-04-22T03:44:38;100194.60;;;11.63;39.88
56176;BME280;63065;51.082;17.016;2023-04-22T03:47:03;100191.14;;;11.43;39.89
56176;BME280;63065;51.082;17.016;2023-04-22T03:49:28;100191.42;;;11.40;40.13
56176;BME280;63065;51.082;17.016;2023-04-22T03:51:54;100188.46;;;11.47;39.82
56176;BME280;63065;51.082;17.016;2023-04-22T03:54:19;100190.35;;;11.47;39.95
56176;BME280;63065;51.082;17.016;2023-04-22T03:56:45;100190.13;;;11.50;39.79
56176;BME280;63065;51.082;17.016;2023-04-22T03:59:10;100185.76;;;11.49;39.74
56176;BME280;63065;51.082;17.016;2023-04-22T04:01:36;100186.22;;;11.50;39.84
56176;BME280;63065;51.082;17.016;2023-04-22T04:04:01;100187.35;;;11.48;39.96
56176;BME280;63065;51.082;17.016;2023-04-22T04:06:27;100186.27;;;11.74;39.89
56176;BME280;63065;51.082;17.016;2023-04-22T04:08:53;100188.82;;;11.53;39.99
56176;BME280;63065;51.082;17.016;2023-04-22T04:11:18;100186.39;;;11.58;40.11
56176;BME280;63065;51.082;17.016;2023-04-22T04:13:44;100186.41;;;11.61;40.19
56176;BME280;63065;51.082;17.016;2023-04-22T04:16:10;100185.66;;;11.59;40.12
56176;BME280;63065;51.082;17.016;2023-04-22T04:18:37;100185.99;;;11.88;40.27
56176;BME280;63065;51.082;17.016;2023-04-22T04:21:01;100185.70;;;11.73;40.04
56176;BME280;63065;51.082;17.016;2023-04-22T04:23:26;100182.47;;;11.71;40.01
56176;BME280;63065;51.082;17.016;2023-04-22T04:25:52;100181.83;;;11.75;40.12
56176;BME280;63065;51.082;17.016;2023-04-22T04:28:18;100187.25;;;11.77;40.48
56176;BME280;63065;51.082;17.016;2023-04-22T04:30:43;100190.09;;;11.87;40.38
56176;BME280;63065;51.082;17.016;2023-04-22T04:33:08;100185.87;;;11.89;40.33
56176;BME280;63065;51.082;17.016;2023-04-22T04:35:35;100185.32;;;11.70;40.51
56176;BME280;63065;51.082;17.016;2023-04-22T04:37:59;100184.12;;;12.00;40.44
56176;BME280;63065;51.082;17.016;2023-04-22T04:40:25;100187.32;;;12.09;40.31
56176;BME280;63065;51.082;17.016;2023-04-22T04:42:50;100190.16;;;12.09;40.53
56176;BME280;63065;51.082;17.016;2023-04-22T04:45:15;100192.77;;;12.01;40.92
56176;BME280;63065;51.082;17.016;2023-04-22T04:47:41;100195.47;;;12.16;40.40
56176;BME280;63065;51.082;17.016;2023-04-22T04:50:07;100197.54;;;12.47;40.26
56176;BME280;63065;51.082;17.016;2023-04-22T04:52:31;100197.50;;;12.35;40.64
56176;BME280;63065;51.082;17.016;2023-04-22T04:54:57;100198.28;;;12.20;40.05
56176;BME280;63065;51.082;17.016;2023-04-22T04:57:23;100196.72;;;12.45;39.85
56176;BME280;63065;51.082;17.016;2023-04-22T04:59:48;100197.92;;;12.40;39.89
56176;BME280;63065;51.082;17.016;2023-04-22T05:02:14;100196.53;;;12.54;39.85
56176;BME280;63065;51.082;17.016;2023-04-22T05:04:39;100200.76;;;12.97;39.84
56176;BME280;63065;51.082;17.016;2023-04-22T05:07:04;100202.25;;;13.14;39.23
56176;BME280;63065;51.082;17.016;2023-04-22T05:09:30;100201.04;;;13.05;39.41
56176;BME280;63065;51.082;17.016;2023-04-22T05:11:55;100203.37;;;13.16;39.07
56176;BME280;63065;51.082;17.016;2023-04-22T05:14:21;100204.23;;;13.22;39.26
56176;BME280;63065;51.082;17.016;2023-04-22T05:16:46;100206.27;;;13.07;38.52
56176;BME280;63065;51.082;17.016;2023-04-22T05:19:12;100206.72;;;13.48;38.80
56176;BME280;63065;51.082;17.016;2023-04-22T05:21:37;100207.74;;;13.68;38.07
56176;BME280;63065;51.082;17.016;2023-04-22T05:24:03;100208.18;;;13.32;37.58
56176;BME280;63065;51.082;17.016;2023-04-22T05:26:28;100204.69;;;13.70;37.42
56176;BME280;63065;51.082;17.016;2023-04-22T05:28:54;100210.27;;;13.60;37.48
56176;BME280;63065;51.082;17.016;2023-04-22T05:31:19;100210.20;;;13.69;37.18
56176;BME280;63065;51.082;17.016;2023-04-22T05:33:45;100208.50;;;13.80;37.01
56176;BME280;63065;51.082;17.016;2023-04-22T05:36:10;100206.77;;;13.87;36.62
56176;BME280;63065;51.082;17.016;2023-04-22T05:38:35;100203.90;;;13.95;36.72
56176;BME280;63065;51.082;17.016;2023-04-22T05:41:00;100206.58;;;14.03;36.46
56176;BME280;63065;51.082;17.016;2023-04-22T05:43:26;100206.55;;;14.14;35.70
56176;BME280;63065;51.082;17.016;2023-04-22T05:45:52;100207.12;;;14.18;35.37
56176;BME280;63065;51.082;17.016;2023-04-22T05:48:18;100204.56;;;14.24;35.55
56176;BME280;63065;51.082;17.016;2023-04-22T05:50:43;100204.52;;;14.35;35.23
56176;BME280;63065;51.082;17.016;2023-04-22T05:53:09;100202.18;;;14.36;35.01
56176;BME280;63065;51.082;17.016;2023-04-22T05:55:34;100201.26;;;14.44;34.94
56176;BME280;63065;51.082;17.016;2023-04-22T05:58:00;100200.67;;;14.48;34.59
56176;BME280;63065;51.082;17.016;2023-04-22T06:00:25;100201.32;;;14.57;34.51
56176;BME280;63065;51.082;17.016;2023-04-22T06:02:50;100198.79;;;14.21;34.55
56176;BME280;63065;51.082;17.016;2023-04-22T06:05:16;100200.74;;;14.84;34.47
56176;BME280;63065;51.082;17.016;2023-04-22T06:07:41;100202.09;;;14.63;34.31
56176;BME280;63065;51.082;17.016;2023-04-22T06:10:08;100205.86;;;14.50;34.18
56176;BME280;63065;51.082;17.016;2023-04-22T06:12:32;100207.58;;;15.06;34.23
56176;BME280;63065;51.082;17.016;2023-04-22T06:14:57;100211.92;;;15.06;34.13
56176;BME280;63065;51.082;17.016;2023-04-22T06:17:23;100213.00;;;14.70;33.96
56176;BME280;63065;51.082;17.016;2023-04-22T06:19:48;100213.82;;;14.81;33.93
56176;BME280;63065;51.082;17.016;2023-04-22T06:22:13;100215.85;;;15.17;34.15
56176;BME280;63065;51.082;17.016;2023-04-22T06:24:39;100215.11;;;15.29;33.56
56176;BME280;63065;51.082;17.016;2023-04-22T06:27:04;100213.95;;;15.07;33.58
56176;BME280;63065;51.082;17.016;2023-04-22T06:29:29;100213.64;;;15.21;33.88
56176;BME280;63065;51.082;17.016;2023-04-22T06:31:55;100214.02;;;15.34;33.49
56176;BME280;63065;51.082;17.016;2023-04-22T06:34:20;100210.49;;;15.55;33.37
56176;BME280;63065;51.082;17.016;2023-04-22T06:36:46;100209.46;;;15.39;33.65
56176;BME280;63065;51.082;17.016;2023-04-22T06:39:11;100208.87;;;15.52;33.26
56176;BME280;63065;51.082;17.016;2023-04-22T06:41:37;100211.81;;;15.66;33.45
56176;BME280;63065;51.082;17.016;2023-04-22T06:44:02;100213.14;;;15.73;32.67
56176;BME280;63065;51.082;17.016;2023-04-22T06:46:27;100213.71;;;15.88;32.56
56176;BME280;63065;51.082;17.016;2023-04-22T06:48:53;100214.41;;;15.76;33.18
56176;BME280;63065;51.082;17.016;2023-04-22T06:51:18;100213.87;;;15.97;33.23
56176;BME280;63065;51.082;17.016;2023-04-22T06:53:44;100214.16;;;15.49;33.17
56176;BME280;63065;51.082;17.016;2023-04-22T06:56:09;100214.98;;;15.80;32.89
56176;BME280;63065;51.082;17.016;2023-04-22T06:58:35;100216.46;;;15.68;32.96
56176;BME280;63065;51.082;17.016;2023-04-22T07:01:01;100218.12;;;16.03;32.87
56176;BME280;63065;51.082;17.016;2023-04-22T07:03:27;100218.95;;;15.88;32.49
56176;BME280;63065;51.082;17.016;2023-04-22T07:05:52;100216.94;;;16.05;32.53
56176;BME280;63065;51.082;17.016;2023-04-22T07:08:18;100213.64;;;16.59;31.39
56176;BME280;63065;51.082;17.016;2023-04-22T07:10:44;100214.53;;;16.26;32.48
56176;BME280;63065;51.082;17.016;2023-04-22T07:13:09;100214.03;;;16.57;31.36
56176;BME280;63065;51.082;17.016;2023-04-22T07:15:34;100214.12;;;16.54;32.17
56176;BME280;63065;51.082;17.016;2023-04-22T07:17:59;100212.92;;;16.64;32.96
56176;BME280;63065;51.082;17.016;2023-04-22T07:20:25;100213.17;;;16.87;33.19
56176;BME280;63065;51.082;17.016;2023-04-22T07:22:51;100213.44;;;16.85;32.73
56176;BME280;63065;51.082;17.016;2023-04-22T07:25:16;100212.84;;;17.10;32.48
56176;BME280;63065;51.082;17.016;2023-04-22T07:27:41;100213.10;;;17.04;32.25
56176;BME280;63065;51.082;17.016;2023-04-22T07:30:08;100215.81;;;16.98;31.95
56176;BME280;63065;51.082;17.016;2023-04-22T07:32:33;100214.27;;;17.23;32.18
56176;BME280;63065;51.082;17.016;2023-04-22T07:34:57;100213.65;;;17.17;32.41
56176;BME280;63065;51.082;17.016;2023-04-22T07:37:23;100216.34;;;17.08;30.36
56176;BME280;63065;51.082;17.016;2023-04-22T07:39:48;100216.09;;;17.15;31.43
56176;BME280;63065;51.082;17.016;2023-04-22T07:42:13;100213.11;;;17.42;31.77
56176;BME280;63065;51.082;17.016;2023-04-22T07:44:39;100212.82;;;17.54;30.94
56176;BME280;63065;51.082;17.016;2023-04-22T07:47:04;100213.15;;;17.54;31.64
56176;BME280;63065;51.082;17.016;2023-04-22T07:49:29;100213.55;;;17.60;31.80
56176;BME280;63065;51.082;17.016;2023-04-22T07:51:56;100212.19;;;17.99;31.36
56176;BME280;63065;51.082;17.016;2023-04-22T07:54:21;100210.88;;;18.20;31.52
56176;BME280;63065;51.082;17.016;2023-04-22T07:56:46;100212.26;;;18.28;31.04
56176;BME280;63065;51.082;17.016;2023-04-22T07:59:11;100209.56;;;18.03;30.14
56176;BME280;63065;51.082;17.016;2023-04-22T08:01:37;100208.23;;;18.48;30.67
56176;BME280;63065;51.082;17.016;2023-04-22T08:04:02;100209.92;;;18.40;31.04
56176;BME280;63065;51.082;17.016;2023-04-22T08:06:27;100206.99;;;18.20;31.24
56176;BME280;63065;51.082;17.016;2023-04-22T08:08:52;100204.26;;;18.41;30.70
56176;BME280;63065;51.082;17.016;2023-04-22T08:11:18;100201.92;;;18.68;31.05
56176;BME280;63065;51.082;17.016;2023-04-22T08:13:43;100200.32;;;18.94;29.74
56176;BME280;63065;51.082;17.016;2023-04-22T08:16:08;100200.54;;;18.82;30.20
56176;BME280;63065;51.082;17.016;2023-04-22T08:18:34;100199.79;;;18.95;29.72
56176;BME280;63065;51.082;17.016;2023-04-22T08:21:00;100202.34;;;19.01;30.46
56176;BME280;63065;51.082;17.016;2023-04-22T08:23:25;100202.67;;;18.99;29.09
56176;BME280;63065;51.082;17.016;2023-04-22T08:28:15;100205.94;;;19.18;29.06
56176;BME280;63065;51.082;17.016;2023-04-22T08:30:40;100201.89;;;19.17;28.67
56176;BME280;63065;51.082;17.016;2023-04-22T08:33:06;100200.62;;;19.49;29.35
56176;BME280;63065;51.082;17.016;2023-04-22T08:35:33;100200.82;;;19.74;29.49
56176;BME280;63065;51.082;17.016;2023-04-22T08:37:57;100198.07;;;19.93;28.96
56176;BME280;63065;51.082;17.016;2023-04-22T08:40:22;100196.58;;;19.75;28.56
56176;BME280;63065;51.082;17.016;2023-04-22T08:42:49;100194.37;;;19.93;28.67
56176;BME280;63065;51.082;17.016;2023-04-22T08:45:13;100194.09;;;20.23;27.26
56176;BME280;63065;51.082;17.016;2023-04-22T08:47:38;100195.45;;;20.38;28.06
56176;BME280;63065;51.082;17.016;2023-04-22T08:50:05;100194.97;;;20.26;27.47
56176;BME280;63065;51.082;17.016;2023-04-22T08:52:29;100193.06;;;20.72;28.28
56176;BME280;63065;51.082;17.016;2023-04-22T08:54:55;100191.79;;;20.70;27.27
56176;BME280;63065;51.082;17.016;2023-04-22T08:57:20;100190.20;;;20.79;27.38
56176;BME280;63065;51.082;17.016;2023-04-22T08:59:46;100194.12;;;20.63;27.59
56176;BME280;63065;51.082;17.016;2023-04-22T09:02:18;100189.76;;;20.85;27.20
56176;BME280;63065;51.082;17.016;2023-04-22T09:04:37;100191.51;;;20.91;27.98
56176;BME280;63065;51.082;17.016;2023-04-22T09:07:03;100191.85;;;20.83;27.77
56176;BME280;63065;51.082;17.016;2023-04-22T09:09:29;100190.66;;;20.88;26.87
56176;BME280;63065;51.082;17.016;2023-04-22T09:11:53;100189.75;;;20.99;26.82
56176;BME280;63065;51.082;17.016;2023-04-22T09:14:20;100191.27;;;21.08;26.71
56176;BME280;63065;51.082;17.016;2023-04-22T09:16:46;100192.07;;;21.23;25.47
56176;BME280;63065;51.082;17.016;2023-04-22T09:19:11;100192.88;;;21.27;26.06
56176;BME280;63065;51.082;17.016;2023-04-22T09:21:36;100190.51;;;21.24;25.47
56176;BME280;63065;51.082;17.016;2023-04-22T09:24:01;100188.51;;;21.44;25.60
56176;BME280;63065;51.082;17.016;2023-04-22T09:26:27;100187.95;;;21.61;24.85
56176;BME280;63065;51.082;17.016;2023-04-22T09:28:53;100188.06;;;21.13;24.79
56176;BME280;63065;51.082;17.016;2023-04-22T09:31:18;100185.46;;;21.75;23.29
56176;BME280;63065;51.082;17.016;2023-04-22T09:33:47;100179.50;;;21.87;24.02
56176;BME280;63065;51.082;17.016;2023-04-22T09:36:08;100179.00;;;21.76;24.23
56176;BME280;63065;51.082;17.016;2023-04-22T09:38:33;100178.32;;;21.62;23.09
56176;BME280;63065;51.082;17.016;2023-04-22T09:40:59;100171.57;;;22.01;23.59
56176;BME280;63065;51.082;17.016;2023-04-22T09:43:24;100170.88;;;22.21;23.57
56176;BME280;63065;51.082;17.016;2023-04-22T09:45:50;100164.91;;;21.98;21.91
56176;BME280;63065;51.082;17.016;2023-04-22T09:48:17;100165.71;;;22.22;22.47
56176;BME280;63065;51.082;17.016;2023-04-22T09:50:43;100163.76;;;22.24;20.91
56176;BME280;63065;51.082;17.016;2023-04-22T09:53:07;100158.22;;;22.42;21.81
56176;BME280;63065;51.082;17.016;2023-04-22T09:55:33;100159.93;;;22.88;21.50
56176;BME280;63065;51.082;17.016;2023-04-22T09:57:57;100162.92;;;22.76;20.08
56176;BME280;63065;51.082;17.016;2023-04-22T10:00:25;100161.17;;;23.17;20.78
56176;BME280;63065;51.082;17.016;2023-04-22T10:02:48;100158.64;;;22.58;20.12
56176;BME280;63065;51.082;17.016;2023-04-22T10:05:14;100154.65;;;22.84;20.57
56176;BME280;63065;51.082;17.016;2023-04-22T10:07:39;100154.91;;;22.87;20.01
56176;BME280;63065;51.082;17.016;2023-04-22T10:10:06;100156.01;;;23.12;20.61
56176;BME280;63065;51.082;17.016;2023-04-22T10:12:30;100155.01;;;23.33;20.44
56176;BME280;63065;51.082;17.016;2023-04-22T10:14:56;100148.84;;;23.24;20.60
56176;BME280;63065;51.082;17.016;2023-04-22T10:17:21;100152.11;;;22.09;20.09
56176;BME280;63065;51.082;17.016;2023-04-22T10:19:47;100149.78;;;22.06;19.60
56176;BME280;63065;51.082;17.016;2023-04-22T10:22:12;100144.80;;;22.75;20.58
56176;BME280;63065;51.082;17.016;2023-04-22T10:24:38;100146.09;;;22.87;20.12
56176;BME280;63065;51.082;17.016;2023-04-22T10:27:04;100143.14;;;22.99;19.98
56176;BME280;63065;51.082;17.016;2023-04-22T10:29:35;100144.51;;;23.31;19.70
56176;BME280;63065;51.082;17.016;2023-04-22T10:31:55;100140.50;;;23.42;20.98
56176;BME280;63065;51.082;17.016;2023-04-22T10:34:20;100137.51;;;23.32;19.77
56176;BME280;63065;51.082;17.016;2023-04-22T10:36:53;100139.02;;;22.87;21.02
56176;BME280;63065;51.082;17.016;2023-04-22T10:39:15;100136.19;;;23.22;20.70
56176;BME280;63065;51.082;17.016;2023-04-22T10:41:37;100132.35;;;22.74;20.28
56176;BME280;63065;51.082;17.016;2023-04-22T10:44:05;100136.90;;;23.21;20.09
56176;BME280;63065;51.082;17.016;2023-04-22T10:48:55;100132.38;;;23.71;19.60
56176;BME280;63065;51.082;17.016;2023-04-22T10:53:44;100120.16;;;23.00;20.66
56176;BME280;63065;51.082;17.016;2023-04-22T10:56:15;100118.50;;;23.13;18.93
56176;BME280;63065;51.082;17.016;2023-04-22T10:58:34;100121.16;;;23.53;20.60
56176;BME280;63065;51.082;17.016;2023-04-22T11:00:59;100113.87;;;23.83;19.66
56176;BME280;63065;51.082;17.016;2023-04-22T11:03:26;100111.07;;;23.52;18.45
56176;BME280;63065;51.082;17.016;2023-04-22T11:08:19;100103.66;;;23.69;20.20
56176;BME280;63065;51.082;17.016;2023-04-22T11:10:43;100100.27;;;23.75;18.82
56176;BME280;63065;51.082;17.016;2023-04-22T11:13:09;100098.50;;;24.21;20.23
56176;BME280;63065;51.082;17.016;2023-04-22T11:15:35;100097.35;;;23.95;19.96
56176;BME280;63065;51.082;17.016;2023-04-22T11:17:58;100094.42;;;24.07;19.83
56176;BME280;63065;51.082;17.016;2023-04-22T11:20:24;100088.50;;;23.58;19.31
56176;BME280;63065;51.082;17.016;2023-04-22T11:22:51;100085.88;;;23.83;20.88
56176;BME280;63065;51.082;17.016;2023-04-22T11:25:14;100084.82;;;24.29;20.14
56176;BME280;63065;51.082;17.016;2023-04-22T11:27:41;100084.46;;;24.28;20.18
56176;BME280;63065;51.082;17.016;2023-04-22T11:30:08;100079.06;;;24.32;19.89
56176;BME280;63065;51.082;17.016;2023-04-22T11:32:31;100074.01;;;24.50;19.23
56176;BME280;63065;51.082;17.016;2023-04-22T11:34:57;100074.26;;;24.12;19.71
56176;BME280;63065;51.082;17.016;2023-04-22T11:37:23;100070.09;;;23.92;20.49
56176;BME280;63065;51.082;17.016;2023-04-22T11:39:48;100072.22;;;24.23;20.27
56176;BME280;63065;51.082;17.016;2023-04-22T11:42:13;100068.24;;;22.98;18.73
56176;BME280;63065;51.082;17.016;2023-04-22T11:44:39;100065.79;;;24.45;20.16
56176;BME280;63065;51.082;17.016;2023-04-22T11:47:04;100063.51;;;24.56;20.06
56176;BME280;63065;51.082;17.016;2023-04-22T11:49:30;100068.20;;;24.67;19.63
56176;BME280;63065;51.082;17.016;2023-04-22T11:51:56;100067.89;;;24.90;18.99
56176;BME280;63065;51.082;17.016;2023-04-22T11:54:29;100067.66;;;24.94;18.96
56176;BME280;63065;51.082;17.016;2023-04-22T11:56:48;100067.37;;;24.72;19.07
56176;BME280;63065;51.082;17.016;2023-04-22T11:59:12;100069.86;;;25.05;18.72
56176;BME280;63065;51.082;17.016;2023-04-22T12:01:41;100064.20;;;25.19;18.86
56176;BME280;63065;51.082;17.016;2023-04-22T12:04:03;100063.91;;;24.76;17.99
56176;BME280;63065;51.082;17.016;2023-04-22T12:06:29;100064.43;;;24.56;19.23
56176;BME280;63065;51.082;17.016;2023-04-22T12:08:55;100063.19;;;24.80;19.33
56176;BME280;63065;51.082;17.016;2023-04-22T12:11:21;100060.37;;;24.71;18.76
56176;BME280;63065;51.082;17.016;2023-04-22T12:13:46;100057.72;;;24.95;19.14
56176;BME280;63065;51.082;17.016;2023-04-22T12:16:16;100057.60;;;24.95;19.02
56176;BME280;63065;51.082;17.016;2023-04-22T12:18:39;100060.30;;;24.96;18.97
56176;BME280;63065;51.082;17.016;2023-04-22T12:21:08;100060.05;;;25.38;18.49
56176;BME280;63065;51.082;17.016;2023-04-22T12:23:28;100057.35;;;25.19;19.52
56176;BME280;63065;51.082;17.016;2023-04-22T12:25:53;100054.80;;;25.62;18.92
56176;BME280;63065;51.082;17.016;2023-04-22T12:28:20;100048.40;;;25.20;18.52
56176;BME280;63065;51.082;17.016;2023-04-22T12:30:45;100042.97;;;24.86;17.53
56176;BME280;63065;51.082;17.016;2023-04-22T12:33:10;100038.92;;;25.41;20.05
56176;BME280;63065;51.082;17.016;2023-04-22T12:35:37;100041.81;;;25.22;18.77
56176;BME280;63065;51.082;17.016;2023-04-22T12:38:02;100040.68;;;25.53;19.32
56176;BME280;63065;51.082;17.016;2023-04-22T12:40:27;100037.52;;;25.51;19.38